sensor_id;sensor_type;location;lat;lon;timestamp;P1;durP1;ratioP1;P2;durP2;ratioP2
5428;SDS011;2737;52.386;9.980;2023-04-30T00:00:49;10.80;;;2.50;;
5428;SDS011;2737;52.386;9.980;2023-04-30T00:03:17;8.60;;;2.90;;
5428;SDS011;2737;52.386;9.980;2023-04-30T00:05:44;6.07;;;2.40;;
5428;SDS011;2737;52.386;9.980;2023-04-30T00:08:15;3.97;;;2.43;;
5428;SDS011;2737;52.386;9.980;2023-04-30T00:10:42;5.03;;;2.50;;
5428;SDS011;2737;52.386;9.980;2023-04-30T00:13:09;8.97;;;2.90;;
5428;SDS011;2737;52.386;9.980;2023-04-30T00:15:38;15.70;;;2.97;;
5428;SDS011;2737;52.386;9.980;2023-04-30T00:18:05;6.80;;;2.60;;
5428;SDS011;2737;52.386;9.980;2023-04-30T00:20:33;7.37;;;2.90;;
5428;SDS011;2737;52.386;9.980;2023-04-30T00:23:00;10.17;;;2.40;;
5428;SDS011;2737;52.386;9.980;2023-04-30T00:25:27;7.50;;;2.57;;
5428;SDS011;2737;52.386;9.980;2023-04-30T00:27:54;8.27;;;3.03;;
5428;SDS011;2737;52.386;9.980;2023-04-30T00:30:21;6.93;;;3.00;;
5428;SDS011;2737;52.386;9.980;2023-04-30T00:32:48;9.73;;;2.57;;
5428;SDS011;2737;52.386;9.980;2023-04-30T00:35:15;7.23;;;3.03;;
5428;SDS011;2737;52.386;9.980;2023-04-30T00:37:44;10.40;;;2.70;;
5428;SDS011;2737;52.386;9.980;2023-04-30T00:40:11;8.07;;;2.60;;
5428;SDS011;2737;52.386;9.980;2023-04-30T00:42:39;6.73;;;3.30;;
5428;SDS011;2737;52.386;9.980;2023-04-30T00:45:06;16.00;;;2.97;;
5428;SDS011;2737;52.386;9.980;2023-04-30T00:47:34;5.00;;;2.10;;
5428;SDS011;2737;52.386;9.980;2023-04-30T00:50:01;6.17;;;2.23;;
5428;SDS011;2737;52.386;9.980;2023-04-30T00:52:28;10.07;;;2.60;;
5428;SDS011;2737;52.386;9.980;2023-04-30T00:54:56;5.63;;;2.27;;
5428;SDS011;2737;52.386;9.980;2023-04-30T00:57:24;9.73;;;3.30;;
5428;SDS011;2737;52.386;9.980;2023-04-30T00:59:52;7.23;;;2.10;;
5428;SDS011;2737;52.386;9.980;2023-04-30T01:02:20;4.83;;;2.53;;
5428;SDS011;2737;52.386;9.980;2023-04-30T01:04:48;3.97;;;2.43;;
5428;SDS011;2737;52.386;9.980;2023-04-30T01:07:16;5.13;;;2.60;;
5428;SDS011;2737;52.386;9.980;2023-04-30T01:09:43;7.47;;;3.30;;
5428;SDS011;2737;52.386;9.980;2023-04-30T01:12:14;12.20;;;2.80;;
5428;SDS011;2737;52.386;9.980;2023-04-30T01:14:50;8.10;;;3.10;;
5428;SDS011;2737;52.386;9.980;2023-04-30T01:17:27;6.57;;;2.73;;
5428;SDS011;2737;52.386;9.980;2023-04-30T01:19:59;10.13;;;2.67;;
5428;SDS011;2737;52.386;9.980;2023-04-30T01:22:30;9.47;;;2.77;;
5428;SDS011;2737;52.386;9.980;2023-04-30T01:25:06;8.17;;;3.07;;
5428;SDS011;2737;52.386;9.980;2023-04-30T01:28:04;6.50;;;2.73;;
5428;SDS011;2737;52.386;9.980;2023-04-30T01:30:32;5.70;;;2.37;;
5428;SDS011;2737;52.386;9.980;2023-04-30T01:33:00;4.77;;;2.30;;
5428;SDS011;2737;52.386;9.980;2023-04-30T01:35:33;29.00;;;3.47;;
5428;SDS011;2737;52.386;9.980;2023-04-30T01:38:15;4.57;;;2.27;;
5428;SDS011;2737;52.386;9.980;2023-04-30T01:40:52;4.73;;;2.60;;
5428;SDS011;2737;52.386;9.980;2023-04-30T01:43:29;5.60;;;2.47;;
5428;SDS011;2737;52.386;9.980;2023-04-30T01:46:07;6.40;;;2.60;;
5428;SDS011;2737;52.386;9.980;2023-04-30T01:48:45;10.60;;;3.03;;
5428;SDS011;2737;52.386;9.980;2023-04-30T01:51:19;8.03;;;3.07;;
5428;SDS011;2737;52.386;9.980;2023-04-30T01:53:54;15.80;;;3.77;;
5428;SDS011;2737;52.386;9.980;2023-04-30T01:56:28;9.30;;;4.37;;
5428;SDS011;2737;52.386;9.980;2023-04-30T01:58:59;5.53;;;3.40;;
5428;SDS011;2737;52.386;9.980;2023-04-30T02:01:27;8.87;;;3.17;;
5428;SDS011;2737;52.386;9.980;2023-04-30T02:03:54;12.77;;;2.77;;
5428;SDS011;2737;52.386;9.980;2023-04-30T02:06:22;5.80;;;2.70;;
5428;SDS011;2737;52.386;9.980;2023-04-30T02:08:52;7.80;;;2.70;;
5428;SDS011;2737;52.386;9.980;2023-04-30T02:11:19;7.13;;;2.43;;
5428;SDS011;2737;52.386;9.980;2023-04-30T02:13:48;9.20;;;2.90;;
5428;SDS011;2737;52.386;9.980;2023-04-30T02:16:17;8.90;;;3.17;;
5428;SDS011;2737;52.386;9.980;2023-04-30T02:18:44;7.03;;;2.57;;
5428;SDS011;2737;52.386;9.980;2023-04-30T02:21:11;11.83;;;3.00;;
5428;SDS011;2737;52.386;9.980;2023-04-30T02:23:39;10.43;;;3.30;;
5428;SDS011;2737;52.386;9.980;2023-04-30T02:26:06;8.93;;;3.27;;
5428;SDS011;2737;52.386;9.980;2023-04-30T02:28:33;6.83;;;2.93;;
5428;SDS011;2737;52.386;9.980;2023-04-30T02:31:00;12.37;;;2.93;;
5428;SDS011;2737;52.386;9.980;2023-04-30T02:33:28;6.97;;;2.60;;
5428;SDS011;2737;52.386;9.980;2023-04-30T02:35:55;4.00;;;2.30;;
5428;SDS011;2737;52.386;9.980;2023-04-30T02:38:23;5.67;;;2.90;;
5428;SDS011;2737;52.386;9.980;2023-04-30T02:40:50;7.73;;;2.63;;
5428;SDS011;2737;52.386;9.980;2023-04-30T02:43:17;4.33;;;2.50;;
5428;SDS011;2737;52.386;9.980;2023-04-30T02:45:44;9.43;;;2.33;;
5428;SDS011;2737;52.386;9.980;2023-04-30T02:48:11;11.57;;;2.63;;
5428;SDS011;2737;52.386;9.980;2023-04-30T02:50:39;7.33;;;2.20;;
5428;SDS011;2737;52.386;9.980;2023-04-30T02:53:06;6.93;;;2.20;;
5428;SDS011;2737;52.386;9.980;2023-04-30T02:55:33;4.40;;;2.30;;
5428;SDS011;2737;52.386;9.980;2023-04-30T02:58:00;6.63;;;2.30;;
5428;SDS011;2737;52.386;9.980;2023-04-30T03:00:27;3.60;;;2.37;;
5428;SDS011;2737;52.386;9.980;2023-04-30T03:02:54;7.10;;;2.20;;
5428;SDS011;2737;52.386;9.980;2023-04-30T03:05:23;6.57;;;2.13;;
5428;SDS011;2737;52.386;9.980;2023-04-30T03:07:51;7.40;;;2.10;;
5428;SDS011;2737;52.386;9.980;2023-04-30T03:10:18;18.53;;;2.90;;
5428;SDS011;2737;52.386;9.980;2023-04-30T03:12:45;8.57;;;3.23;;
5428;SDS011;2737;52.386;9.980;2023-04-30T03:15:12;7.83;;;2.73;;
5428;SDS011;2737;52.386;9.980;2023-04-30T03:17:39;6.13;;;2.33;;
5428;SDS011;2737;52.386;9.980;2023-04-30T03:20:06;7.40;;;2.23;;
5428;SDS011;2737;52.386;9.980;2023-04-30T03:22:34;9.23;;;2.63;;
5428;SDS011;2737;52.386;9.980;2023-04-30T03:25:03;9.10;;;2.43;;
5428;SDS011;2737;52.386;9.980;2023-04-30T03:27:30;9.47;;;2.10;;
5428;SDS011;2737;52.386;9.980;2023-04-30T03:29:57;7.57;;;2.97;;
5428;SDS011;2737;52.386;9.980;2023-04-30T03:32:24;11.00;;;3.03;;
5428;SDS011;2737;52.386;9.980;2023-04-30T03:34:51;5.47;;;2.43;;
5428;SDS011;2737;52.386;9.980;2023-04-30T03:37:18;6.87;;;2.83;;
5428;SDS011;2737;52.386;9.980;2023-04-30T03:39:45;7.13;;;2.30;;
5428;SDS011;2737;52.386;9.980;2023-04-30T03:42:13;5.97;;;2.40;;
5428;SDS011;2737;52.386;9.980;2023-04-30T03:44:40;7.80;;;2.10;;
5428;SDS011;2737;52.386;9.980;2023-04-30T03:47:07;6.50;;;2.20;;
5428;SDS011;2737;52.386;9.980;2023-04-30T03:49:34;7.70;;;2.73;;
5428;SDS011;2737;52.386;9.980;2023-04-30T03:52:02;6.70;;;2.40;;
5428;SDS011;2737;52.386;9.980;2023-04-30T03:54:29;5.90;;;3.00;;
5428;SDS011;2737;52.386;9.980;2023-04-30T03:56:57;6.60;;;2.70;;
5428;SDS011;2737;52.386;9.980;2023-04-30T03:59:26;4.97;;;2.67;;
5428;SDS011;2737;52.386;9.980;2023-04-30T04:01:53;6.47;;;2.57;;
5428;SDS011;2737;52.386;9.980;2023-04-30T04:04:20;6.07;;;2.30;;
5428;SDS011;2737;52.386;9.980;2023-04-30T04:06:48;8.27;;;2.37;;
5428;SDS011;2737;52.386;9.980;2023-04-30T04:09:15;7.00;;;2.37;;
5428;SDS011;2737;52.386;9.980;2023-04-30T04:11:42;5.80;;;2.80;;
5428;SDS011;2737;52.386;9.980;2023-04-30T04:14:09;8.33;;;2.93;;
5428;SDS011;2737;52.386;9.980;2023-04-30T04:16:37;8.93;;;2.80;;
5428;SDS011;2737;52.386;9.980;2023-04-30T04:19:04;10.43;;;4.83;;
5428;SDS011;2737;52.386;9.980;2023-04-30T04:21:31;6.30;;;2.60;;
5428;SDS011;2737;52.386;9.980;2023-04-30T04:23:58;10.93;;;3.40;;
5428;SDS011;2737;52.386;9.980;2023-04-30T04:26:29;7.50;;;3.07;;
5428;SDS011;2737;52.386;9.980;2023-04-30T04:28:56;9.03;;;2.87;;
5428;SDS011;2737;52.386;9.980;2023-04-30T04:31:23;6.27;;;2.57;;
5428;SDS011;2737;52.386;9.980;2023-04-30T04:33:52;11.00;;;3.43;;
5428;SDS011;2737;52.386;9.980;2023-04-30T04:36:22;9.83;;;3.30;;
5428;SDS011;2737;52.386;9.980;2023-04-30T04:38:51;7.03;;;3.30;;
5428;SDS011;2737;52.386;9.980;2023-04-30T04:41:18;7.20;;;3.50;;
5428;SDS011;2737;52.386;9.980;2023-04-30T04:43:45;4.43;;;3.00;;
5428;SDS011;2737;52.386;9.980;2023-04-30T04:46:12;6.03;;;3.27;;
5428;SDS011;2737;52.386;9.980;2023-04-30T04:48:41;19.97;;;4.23;;
5428;SDS011;2737;52.386;9.980;2023-04-30T04:51:10;7.20;;;3.27;;
5428;SDS011;2737;52.386;9.980;2023-04-30T04:53:37;12.67;;;3.80;;
5428;SDS011;2737;52.386;9.980;2023-04-30T04:56:04;7.77;;;4.03;;
5428;SDS011;2737;52.386;9.980;2023-04-30T04:58:32;8.37;;;4.47;;
5428;SDS011;2737;52.386;9.980;2023-04-30T05:00:59;7.30;;;4.40;;
5428;SDS011;2737;52.386;9.980;2023-04-30T05:03:29;8.40;;;4.57;;
5428;SDS011;2737;52.386;9.980;2023-04-30T05:05:56;12.00;;;4.33;;
5428;SDS011;2737;52.386;9.980;2023-04-30T05:08:25;10.20;;;4.40;;
5428;SDS011;2737;52.386;9.980;2023-04-30T05:10:52;13.70;;;5.47;;
5428;SDS011;2737;52.386;9.980;2023-04-30T05:13:19;19.07;;;5.70;;
5428;SDS011;2737;52.386;9.980;2023-04-30T05:15:46;8.80;;;3.80;;
5428;SDS011;2737;52.386;9.980;2023-04-30T05:18:14;12.37;;;5.00;;
5428;SDS011;2737;52.386;9.980;2023-04-30T05:20:41;10.77;;;4.20;;
5428;SDS011;2737;52.386;9.980;2023-04-30T05:23:08;9.83;;;4.70;;
5428;SDS011;2737;52.386;9.980;2023-04-30T05:25:37;12.30;;;4.30;;
5428;SDS011;2737;52.386;9.980;2023-04-30T05:28:04;8.27;;;4.43;;
5428;SDS011;2737;52.386;9.980;2023-04-30T05:30:32;10.07;;;3.77;;
5428;SDS011;2737;52.386;9.980;2023-04-30T05:32:59;8.30;;;4.10;;
5428;SDS011;2737;52.386;9.980;2023-04-30T05:35:25;15.60;;;3.97;;
5428;SDS011;2737;52.386;9.980;2023-04-30T05:37:53;17.23;;;4.40;;
5428;SDS011;2737;52.386;9.980;2023-04-30T05:40:20;8.60;;;3.70;;
5428;SDS011;2737;52.386;9.980;2023-04-30T05:42:48;14.07;;;3.47;;
5428;SDS011;2737;52.386;9.980;2023-04-30T05:45:15;13.67;;;4.60;;
5428;SDS011;2737;52.386;9.980;2023-04-30T05:47:42;13.70;;;3.33;;
5428;SDS011;2737;52.386;9.980;2023-04-30T05:50:09;11.83;;;4.03;;
5428;SDS011;2737;52.386;9.980;2023-04-30T05:52:37;10.70;;;5.13;;
5428;SDS011;2737;52.386;9.980;2023-04-30T05:55:04;15.03;;;4.23;;
5428;SDS011;2737;52.386;9.980;2023-04-30T05:57:32;11.27;;;4.00;;
5428;SDS011;2737;52.386;9.980;2023-04-30T06:00:01;14.23;;;3.57;;
5428;SDS011;2737;52.386;9.980;2023-04-30T06:02:30;8.33;;;3.57;;
5428;SDS011;2737;52.386;9.980;2023-04-30T06:04:57;13.37;;;3.57;;
5428;SDS011;2737;52.386;9.980;2023-04-30T06:07:26;12.50;;;3.07;;
5428;SDS011;2737;52.386;9.980;2023-04-30T06:09:53;15.80;;;3.63;;
5428;SDS011;2737;52.386;9.980;2023-04-30T06:12:20;10.83;;;3.10;;
5428;SDS011;2737;52.386;9.980;2023-04-30T06:14:47;10.50;;;2.37;;
5428;SDS011;2737;52.386;9.980;2023-04-30T06:17:15;8.20;;;3.07;;
5428;SDS011;2737;52.386;9.980;2023-04-30T06:19:43;16.37;;;3.37;;
5428;SDS011;2737;52.386;9.980;2023-04-30T06:22:10;9.33;;;2.60;;
5428;SDS011;2737;52.386;9.980;2023-04-30T06:24:37;5.40;;;2.47;;
5428;SDS011;2737;52.386;9.980;2023-04-30T06:27:04;9.47;;;3.47;;
5428;SDS011;2737;52.386;9.980;2023-04-30T06:29:31;9.93;;;3.47;;
5428;SDS011;2737;52.386;9.980;2023-04-30T06:31:58;14.60;;;3.17;;
5428;SDS011;2737;52.386;9.980;2023-04-30T06:34:27;6.10;;;2.40;;
5428;SDS011;2737;52.386;9.980;2023-04-30T06:36:54;8.33;;;2.80;;
5428;SDS011;2737;52.386;9.980;2023-04-30T06:39:21;7.50;;;3.53;;
5428;SDS011;2737;52.386;9.980;2023-04-30T06:41:48;10.80;;;2.70;;
5428;SDS011;2737;52.386;9.980;2023-04-30T06:44:16;11.63;;;3.00;;
5428;SDS011;2737;52.386;9.980;2023-04-30T06:46:43;9.07;;;2.60;;
5428;SDS011;2737;52.386;9.980;2023-04-30T06:49:10;9.13;;;2.90;;
5428;SDS011;2737;52.386;9.980;2023-04-30T06:51:39;6.60;;;2.20;;
5428;SDS011;2737;52.386;9.980;2023-04-30T06:54:07;8.43;;;2.70;;
5428;SDS011;2737;52.386;9.980;2023-04-30T06:56:34;10.90;;;2.60;;
5428;SDS011;2737;52.386;9.980;2023-04-30T06:59:01;10.57;;;3.17;;
5428;SDS011;2737;52.386;9.980;2023-04-30T07:01:29;12.73;;;2.80;;
5428;SDS011;2737;52.386;9.980;2023-04-30T07:03:56;10.40;;;2.80;;
5428;SDS011;2737;52.386;9.980;2023-04-30T07:06:23;11.97;;;2.70;;
5428;SDS011;2737;52.386;9.980;2023-04-30T07:08:51;5.40;;;2.00;;
5428;SDS011;2737;52.386;9.980;2023-04-30T07:11:18;14.37;;;2.80;;
5428;SDS011;2737;52.386;9.980;2023-04-30T07:13:45;5.77;;;2.30;;
5428;SDS011;2737;52.386;9.980;2023-04-30T07:16:12;11.63;;;2.90;;
5428;SDS011;2737;52.386;9.980;2023-04-30T07:18:41;10.90;;;2.60;;
5428;SDS011;2737;52.386;9.980;2023-04-30T07:21:08;12.10;;;2.27;;
5428;SDS011;2737;52.386;9.980;2023-04-30T07:23:35;10.40;;;2.40;;
5428;SDS011;2737;52.386;9.980;2023-04-30T07:26:03;12.50;;;2.23;;
5428;SDS011;2737;52.386;9.980;2023-04-30T07:28:30;8.67;;;2.20;;
5428;SDS011;2737;52.386;9.980;2023-04-30T07:30:57;5.83;;;2.40;;
5428;SDS011;2737;52.386;9.980;2023-04-30T07:33:24;10.67;;;2.60;;
5428;SDS011;2737;52.386;9.980;2023-04-30T07:35:52;9.60;;;2.23;;
5428;SDS011;2737;52.386;9.980;2023-04-30T07:38:20;7.90;;;2.90;;
5428;SDS011;2737;52.386;9.980;2023-04-30T07:40:48;11.87;;;3.13;;
5428;SDS011;2737;52.386;9.980;2023-04-30T07:43:16;5.23;;;2.27;;
5428;SDS011;2737;52.386;9.980;2023-04-30T07:45:43;8.60;;;2.33;;
5428;SDS011;2737;52.386;9.980;2023-04-30T07:48:10;16.80;;;2.23;;
5428;SDS011;2737;52.386;9.980;2023-04-30T07:50:37;9.10;;;2.30;;
5428;SDS011;2737;52.386;9.980;2023-04-30T07:53:04;9.90;;;3.10;;
5428;SDS011;2737;52.386;9.980;2023-04-30T07:55:33;11.60;;;2.60;;
5428;SDS011;2737;52.386;9.980;2023-04-30T07:58:00;6.73;;;2.63;;
5428;SDS011;2737;52.386;9.980;2023-04-30T08:00:29;13.63;;;3.20;;
5428;SDS011;2737;52.386;9.980;2023-04-30T08:02:56;9.90;;;2.40;;
5428;SDS011;2737;52.386;9.980;2023-04-30T08:05:24;7.43;;;2.30;;
5428;SDS011;2737;52.386;9.980;2023-04-30T08:07:51;13.07;;;2.77;;
5428;SDS011;2737;52.386;9.980;2023-04-30T08:10:18;7.83;;;2.63;;
5428;SDS011;2737;52.386;9.980;2023-04-30T08:12:45;9.10;;;2.37;;
5428;SDS011;2737;52.386;9.980;2023-04-30T08:15:12;7.60;;;2.50;;
5428;SDS011;2737;52.386;9.980;2023-04-30T08:17:41;10.07;;;2.30;;
5428;SDS011;2737;52.386;9.980;2023-04-30T08:20:09;8.60;;;2.90;;
5428;SDS011;2737;52.386;9.980;2023-04-30T08:22:36;13.33;;;2.70;;
5428;SDS011;2737;52.386;9.980;2023-04-30T08:25:04;9.47;;;2.60;;
5428;SDS011;2737;52.386;9.980;2023-04-30T08:27:31;9.20;;;2.47;;
5428;SDS011;2737;52.386;9.980;2023-04-30T08:29:58;5.73;;;1.80;;
5428;SDS011;2737;52.386;9.980;2023-04-30T08:32:26;7.53;;;2.40;;
5428;SDS011;2737;52.386;9.980;2023-04-30T08:34:55;14.00;;;2.50;;
5428;SDS011;2737;52.386;9.980;2023-04-30T08:37:22;8.30;;;2.33;;
5428;SDS011;2737;52.386;9.980;2023-04-30T08:39:49;18.10;;;2.70;;
5428;SDS011;2737;52.386;9.980;2023-04-30T08:42:16;7.80;;;2.60;;
5428;SDS011;2737;52.386;9.980;2023-04-30T08:44:44;13.27;;;2.80;;
5428;SDS011;2737;52.386;9.980;2023-04-30T08:47:12;10.30;;;2.50;;
5428;SDS011;2737;52.386;9.980;2023-04-30T08:49:40;9.63;;;2.47;;
5428;SDS011;2737;52.386;9.980;2023-04-30T08:52:09;10.23;;;2.80;;
5428;SDS011;2737;52.386;9.980;2023-04-30T08:54:36;8.17;;;2.17;;
5428;SDS011;2737;52.386;9.980;2023-04-30T08:57:03;7.27;;;2.37;;
5428;SDS011;2737;52.386;9.980;2023-04-30T08:59:31;6.90;;;2.47;;
5428;SDS011;2737;52.386;9.980;2023-04-30T09:01:58;11.70;;;2.33;;
5428;SDS011;2737;52.386;9.980;2023-04-30T09:04:26;4.90;;;2.23;;
5428;SDS011;2737;52.386;9.980;2023-04-30T09:06:53;20.50;;;4.90;;
5428;SDS011;2737;52.386;9.980;2023-04-30T09:09:26;11.33;;;3.30;;
5428;SDS011;2737;52.386;9.980;2023-04-30T09:12:00;7.47;;;3.03;;
5428;SDS011;2737;52.386;9.980;2023-04-30T09:14:38;6.70;;;2.23;;
5428;SDS011;2737;52.386;9.980;2023-04-30T09:17:05;6.33;;;2.20;;
5428;SDS011;2737;52.386;9.980;2023-04-30T09:19:33;6.10;;;2.10;;
5428;SDS011;2737;52.386;9.980;2023-04-30T09:22:20;14.40;;;2.27;;
5428;SDS011;2737;52.386;9.980;2023-04-30T09:24:49;7.37;;;2.20;;
5428;SDS011;2737;52.386;9.980;2023-04-30T09:27:17;6.43;;;2.20;;
5428;SDS011;2737;52.386;9.980;2023-04-30T09:29:46;6.97;;;2.47;;
5428;SDS011;2737;52.386;9.980;2023-04-30T09:32:13;6.73;;;2.13;;
5428;SDS011;2737;52.386;9.980;2023-04-30T09:34:40;6.27;;;1.87;;
5428;SDS011;2737;52.386;9.980;2023-04-30T09:37:07;5.00;;;1.90;;
5428;SDS011;2737;52.386;9.980;2023-04-30T09:39:45;8.97;;;2.80;;
5428;SDS011;2737;52.386;9.980;2023-04-30T09:42:15;6.53;;;2.50;;
5428;SDS011;2737;52.386;9.980;2023-04-30T09:44:43;6.07;;;2.00;;
5428;SDS011;2737;52.386;9.980;2023-04-30T09:47:10;8.23;;;3.17;;
5428;SDS011;2737;52.386;9.980;2023-04-30T09:49:39;9.90;;;2.70;;
5428;SDS011;2737;52.386;9.980;2023-04-30T09:52:08;10.20;;;2.43;;
5428;SDS011;2737;52.386;9.980;2023-04-30T09:54:36;8.13;;;2.30;;
5428;SDS011;2737;52.386;9.980;2023-04-30T09:57:04;13.37;;;2.70;;
5428;SDS011;2737;52.386;9.980;2023-04-30T09:59:36;9.47;;;2.20;;
5428;SDS011;2737;52.386;9.980;2023-04-30T10:02:04;8.40;;;2.23;;
5428;SDS011;2737;52.386;9.980;2023-04-30T10:04:32;7.50;;;2.70;;
5428;SDS011;2737;52.386;9.980;2023-04-30T10:07:01;6.83;;;2.90;;
5428;SDS011;2737;52.386;9.980;2023-04-30T10:09:34;7.93;;;1.67;;
5428;SDS011;2737;52.386;9.980;2023-04-30T10:12:05;8.87;;;2.30;;
5428;SDS011;2737;52.386;9.980;2023-04-30T10:14:39;7.80;;;2.23;;
5428;SDS011;2737;52.386;9.980;2023-04-30T10:17:10;4.20;;;2.33;;
5428;SDS011;2737;52.386;9.980;2023-04-30T10:19:41;9.93;;;2.60;;
5428;SDS011;2737;52.386;9.980;2023-04-30T10:22:11;7.40;;;2.80;;
5428;SDS011;2737;52.386;9.980;2023-04-30T10:24:39;5.90;;;2.40;;
5428;SDS011;2737;52.386;9.980;2023-04-30T10:27:08;5.73;;;2.03;;
5428;SDS011;2737;52.386;9.980;2023-04-30T10:29:36;3.13;;;1.90;;
5428;SDS011;2737;52.386;9.980;2023-04-30T10:32:04;5.83;;;2.40;;
5428;SDS011;2737;52.386;9.980;2023-04-30T10:34:35;10.33;;;2.60;;
5428;SDS011;2737;52.386;9.980;2023-04-30T10:37:10;7.90;;;3.00;;
5428;SDS011;2737;52.386;9.980;2023-04-30T10:39:43;7.37;;;2.53;;
5428;SDS011;2737;52.386;9.980;2023-04-30T10:42:11;13.77;;;1.97;;
5428;SDS011;2737;52.386;9.980;2023-04-30T10:44:38;4.00;;;1.70;;
5428;SDS011;2737;52.386;9.980;2023-04-30T10:47:07;7.60;;;2.43;;
5428;SDS011;2737;52.386;9.980;2023-04-30T10:49:34;10.93;;;2.50;;
5428;SDS011;2737;52.386;9.980;2023-04-30T10:52:02;7.40;;;2.37;;
5428;SDS011;2737;52.386;9.980;2023-04-30T10:54:30;6.73;;;2.30;;
5428;SDS011;2737;52.386;9.980;2023-04-30T10:57:08;6.63;;;2.07;;
5428;SDS011;2737;52.386;9.980;2023-04-30T10:59:37;6.93;;;2.30;;
5428;SDS011;2737;52.386;9.980;2023-04-30T11:02:10;9.23;;;2.30;;
5428;SDS011;2737;52.386;9.980;2023-04-30T11:07:36;5.40;;;2.63;;
5428;SDS011;2737;52.386;9.980;2023-04-30T11:10:13;6.20;;;2.10;;
5428;SDS011;2737;52.386;9.980;2023-04-30T11:12:43;8.23;;;2.57;;
5428;SDS011;2737;52.386;9.980;2023-04-30T11:15:14;7.00;;;2.10;;
5428;SDS011;2737;52.386;9.980;2023-04-30T11:17:45;8.73;;;4.10;;
5428;SDS011;2737;52.386;9.980;2023-04-30T11:20:17;8.53;;;3.20;;
5428;SDS011;2737;52.386;9.980;2023-04-30T11:22:46;6.37;;;1.87;;
5428;SDS011;2737;52.386;9.980;2023-04-30T11:25:17;4.83;;;1.60;;
5428;SDS011;2737;52.386;9.980;2023-04-30T11:27:44;12.57;;;2.57;;
5428;SDS011;2737;52.386;9.980;2023-04-30T11:30:12;11.80;;;2.40;;
5428;SDS011;2737;52.386;9.980;2023-04-30T11:32:40;5.17;;;2.23;;
5428;SDS011;2737;52.386;9.980;2023-04-30T11:35:11;12.63;;;2.90;;
5428;SDS011;2737;52.386;9.980;2023-04-30T11:37:40;8.07;;;2.97;;
5428;SDS011;2737;52.386;9.980;2023-04-30T11:40:09;7.83;;;2.23;;
5428;SDS011;2737;52.386;9.980;2023-04-30T11:42:37;4.60;;;2.13;;
5428;SDS011;2737;52.386;9.980;2023-04-30T11:45:06;7.73;;;2.30;;
5428;SDS011;2737;52.386;9.980;2023-04-30T11:47:39;10.00;;;1.60;;
5428;SDS011;2737;52.386;9.980;2023-04-30T11:50:07;4.77;;;2.10;;
5428;SDS011;2737;52.386;9.980;2023-04-30T11:52:36;7.17;;;2.37;;
5428;SDS011;2737;52.386;9.980;2023-04-30T11:55:13;8.47;;;2.13;;
5428;SDS011;2737;52.386;9.980;2023-04-30T11:57:41;9.17;;;2.30;;
5428;SDS011;2737;52.386;9.980;2023-04-30T12:00:10;4.67;;;2.00;;
5428;SDS011;2737;52.386;9.980;2023-04-30T12:02:38;4.00;;;2.00;;
5428;SDS011;2737;52.386;9.980;2023-04-30T12:05:11;4.83;;;1.77;;
5428;SDS011;2737;52.386;9.980;2023-04-30T12:07:44;9.37;;;2.17;;
5428;SDS011;2737;52.386;9.980;2023-04-30T12:10:17;15.93;;;2.77;;
5428;SDS011;2737;52.386;9.980;2023-04-30T12:12:45;3.80;;;1.80;;
5428;SDS011;2737;52.386;9.980;2023-04-30T12:15:13;6.93;;;2.17;;
5428;SDS011;2737;52.386;9.980;2023-04-30T12:17:42;13.70;;;2.57;;
5428;SDS011;2737;52.386;9.980;2023-04-30T12:20:10;9.93;;;2.10;;
5428;SDS011;2737;52.386;9.980;2023-04-30T12:22:39;7.87;;;2.17;;
5428;SDS011;2737;52.386;9.980;2023-04-30T12:25:10;7.43;;;2.43;;
5428;SDS011;2737;52.386;9.980;2023-04-30T12:27:39;6.63;;;2.30;;
5428;SDS011;2737;52.386;9.980;2023-04-30T12:30:07;6.00;;;2.20;;
5428;SDS011;2737;52.386;9.980;2023-04-30T12:32:39;6.23;;;2.10;;
5428;SDS011;2737;52.386;9.980;2023-04-30T12:35:07;7.00;;;2.10;;
5428;SDS011;2737;52.386;9.980;2023-04-30T12:37:40;5.33;;;1.97;;
5428;SDS011;2737;52.386;9.980;2023-04-30T12:40:10;10.93;;;2.27;;
5428;SDS011;2737;52.386;9.980;2023-04-30T12:42:38;8.47;;;1.97;;
5428;SDS011;2737;52.386;9.980;2023-04-30T12:45:07;5.60;;;2.30;;
5428;SDS011;2737;52.386;9.980;2023-04-30T12:47:37;10.10;;;2.77;;
5428;SDS011;2737;52.386;9.980;2023-04-30T12:50:06;6.40;;;1.87;;
5428;SDS011;2737;52.386;9.980;2023-04-30T12:52:35;6.00;;;2.03;;
5428;SDS011;2737;52.386;9.980;2023-04-30T12:55:17;11.10;;;2.40;;
5428;SDS011;2737;52.386;9.980;2023-04-30T12:58:01;6.70;;;2.60;;
5428;SDS011;2737;52.386;9.980;2023-04-30T13:00:41;6.03;;;1.90;;
5428;SDS011;2737;52.386;9.980;2023-04-30T13:03:12;13.83;;;2.20;;
5428;SDS011;2737;52.386;9.980;2023-04-30T13:05:39;7.63;;;2.30;;
5428;SDS011;2737;52.386;9.980;2023-04-30T13:08:06;5.57;;;1.90;;
5428;SDS011;2737;52.386;9.980;2023-04-30T13:10:35;13.83;;;2.23;;
5428;SDS011;2737;52.386;9.980;2023-04-30T13:13:02;4.00;;;2.33;;
5428;SDS011;2737;52.386;9.980;2023-04-30T13:15:29;9.43;;;1.87;;
5428;SDS011;2737;52.386;9.980;2023-04-30T13:17:56;3.20;;;1.90;;
5428;SDS011;2737;52.386;9.980;2023-04-30T13:20:23;4.63;;;2.07;;
5428;SDS011;2737;52.386;9.980;2023-04-30T13:22:51;4.93;;;2.00;;
5428;SDS011;2737;52.386;9.980;2023-04-30T13:25:18;6.40;;;2.23;;
5428;SDS011;2737;52.386;9.980;2023-04-30T13:27:47;5.80;;;1.90;;
5428;SDS011;2737;52.386;9.980;2023-04-30T13:30:14;8.93;;;2.00;;
5428;SDS011;2737;52.386;9.980;2023-04-30T13:32:41;3.00;;;1.50;;
5428;SDS011;2737;52.386;9.980;2023-04-30T13:35:09;7.97;;;2.00;;
5428;SDS011;2737;52.386;9.980;2023-04-30T13:37:36;5.90;;;2.03;;
5428;SDS011;2737;52.386;9.980;2023-04-30T13:40:04;5.57;;;2.00;;
5428;SDS011;2737;52.386;9.980;2023-04-30T13:42:32;6.40;;;2.17;;
5428;SDS011;2737;52.386;9.980;2023-04-30T13:45:00;6.13;;;1.90;;
5428;SDS011;2737;52.386;9.980;2023-04-30T13:47:28;5.40;;;1.87;;
5428;SDS011;2737;52.386;9.980;2023-04-30T13:49:55;4.87;;;2.10;;
5428;SDS011;2737;52.386;9.980;2023-04-30T13:52:22;9.00;;;2.03;;
5428;SDS011;2737;52.386;9.980;2023-04-30T13:54:49;2.70;;;1.67;;
5428;SDS011;2737;52.386;9.980;2023-04-30T13:57:16;7.20;;;2.10;;
5428;SDS011;2737;52.386;9.980;2023-04-30T13:59:44;3.13;;;1.60;;
5428;SDS011;2737;52.386;9.980;2023-04-30T14:02:12;6.60;;;2.20;;
5428;SDS011;2737;52.386;9.980;2023-04-30T14:04:39;6.00;;;2.27;;
5428;SDS011;2737;52.386;9.980;2023-04-30T14:07:07;3.23;;;1.87;;
5428;SDS011;2737;52.386;9.980;2023-04-30T14:09:34;5.00;;;2.00;;
5428;SDS011;2737;52.386;9.980;2023-04-30T14:12:01;6.17;;;1.83;;
5428;SDS011;2737;52.386;9.980;2023-04-30T14:14:28;4.20;;;2.10;;
5428;SDS011;2737;52.386;9.980;2023-04-30T14:16:55;7.33;;;1.87;;
5428;SDS011;2737;52.386;9.980;2023-04-30T14:19:24;4.03;;;1.43;;
5428;SDS011;2737;52.386;9.980;2023-04-30T14:21:51;8.80;;;1.80;;
5428;SDS011;2737;52.386;9.980;2023-04-30T14:24:18;8.37;;;1.90;;
5428;SDS011;2737;52.386;9.980;2023-04-30T14:26:45;5.23;;;1.70;;
5428;SDS011;2737;52.386;9.980;2023-04-30T14:29:12;3.43;;;1.57;;
5428;SDS011;2737;52.386;9.980;2023-04-30T14:31:39;4.97;;;1.63;;
5428;SDS011;2737;52.386;9.980;2023-04-30T14:34:06;2.73;;;1.23;;
5428;SDS011;2737;52.386;9.980;2023-04-30T14:36:35;5.23;;;1.67;;
5428;SDS011;2737;52.386;9.980;2023-04-30T14:39:02;6.00;;;1.90;;
5428;SDS011;2737;52.386;9.980;2023-04-30T14:41:32;8.13;;;1.70;;
5428;SDS011;2737;52.386;9.980;2023-04-30T14:44:00;7.67;;;1.70;;
5428;SDS011;2737;52.386;9.980;2023-04-30T14:46:28;4.47;;;2.17;;
5428;SDS011;2737;52.386;9.980;2023-04-30T14:48:57;3.67;;;1.60;;
5428;SDS011;2737;52.386;9.980;2023-04-30T14:51:24;10.10;;;2.30;;
5428;SDS011;2737;52.386;9.980;2023-04-30T14:53:54;8.53;;;2.50;;
5428;SDS011;2737;52.386;9.980;2023-04-30T14:56:22;6.13;;;1.93;;
5428;SDS011;2737;52.386;9.980;2023-04-30T14:58:49;4.03;;;1.77;;
5428;SDS011;2737;52.386;9.980;2023-04-30T15:01:16;7.57;;;1.70;;
5428;SDS011;2737;52.386;9.980;2023-04-30T15:03:43;5.67;;;1.97;;
5428;SDS011;2737;52.386;9.980;2023-04-30T15:06:10;6.43;;;2.10;;
5428;SDS011;2737;52.386;9.980;2023-04-30T15:08:37;6.20;;;2.10;;
5428;SDS011;2737;52.386;9.980;2023-04-30T15:11:06;4.97;;;2.30;;
5428;SDS011;2737;52.386;9.980;2023-04-30T15:13:34;5.00;;;1.80;;
5428;SDS011;2737;52.386;9.980;2023-04-30T15:16:02;4.87;;;1.90;;
5428;SDS011;2737;52.386;9.980;2023-04-30T15:18:29;5.27;;;1.97;;
5428;SDS011;2737;52.386;9.980;2023-04-30T15:20:57;9.33;;;1.87;;
5428;SDS011;2737;52.386;9.980;2023-04-30T15:23:24;3.80;;;1.90;;